createdAt,value
2023-01-09T00:02:08.595Z,100234.42
2023-01-09T00:04:36.426Z,100230.43
2023-01-09T00:07:03.940Z,100230.58
2023-01-09T00:09:31.184Z,100228.67
2023-01-09T00:11:58.558Z,100222.65
2023-01-09T00:14:25.481Z,100227.10
2023-01-09T00:16:54.667Z,100231.86
2023-01-09T00:19:21.724Z,100231.68
2023-01-09T00:21:48.567Z,100233.89
2023-01-09T00:24:16.229Z,100232.69
2023-01-09T00:26:43.064Z,100232.52
2023-01-09T00:29:10.630Z,100237.30
2023-01-09T00:31:37.675Z,100229.04
2023-01-09T00:34:06.558Z,100225.21
2023-01-09T00:36:33.404Z,100226.55
2023-01-09T00:39:00.962Z,100229.56
2023-01-09T00:41:36.986Z,100226.96
2023-01-09T00:44:07.752Z,100215.60
2023-01-09T00:46:37.270Z,100216.60
2023-01-09T00:49:04.610Z,100209.23
2023-01-09T00:51:31.401Z,100207.52
2023-01-09T00:53:58.096Z,100195.35
2023-01-09T00:56:25.446Z,100188.48
2023-01-09T00:58:52.301Z,100183.49
2023-01-09T01:01:21.070Z,100181.98
2023-01-09T01:03:48.041Z,100180.09
2023-01-09T01:06:33.735Z,100184.70
2023-01-09T01:09:01.470Z,100171.70
2023-01-09T01:11:28.818Z,100171.71
2023-01-09T01:13:55.868Z,100164.36
2023-01-09T01:16:22.737Z,100166.04
2023-01-09T01:18:50.274Z,100161.56
2023-01-09T01:21:17.411Z,100159.98
2023-01-09T01:23:44.367Z,100152.09
2023-01-09T01:26:13.263Z,100147.98
2023-01-09T01:28:40.741Z,100143.71
2023-01-09T01:31:08.166Z,100140.63
2023-01-09T01:33:35.519Z,100136.66
2023-01-09T01:36:07.968Z,100131.48
2023-01-09T01:38:35.169Z,100127.20
2023-01-09T01:41:02.700Z,100125.66
2023-01-09T01:43:53.918Z,100122.92
2023-01-09T01:46:20.937Z,100123.24
2023-01-09T01:48:49.125Z,100126.13
2023-01-09T01:51:16.606Z,100124.76
2023-01-09T01:53:46.804Z,100120.48
2023-01-09T01:56:21.332Z,100115.12
2023-01-09T01:58:51.932Z,100116.28
2023-01-09T02:01:18.757Z,100118.14
2023-01-09T02:03:45.884Z,100107.31
2023-01-09T02:06:12.898Z,100106.94
2023-01-09T02:08:39.835Z,100104.35
2023-01-09T02:11:07.000Z,100093.17
2023-01-09T02:13:34.852Z,100090.59
2023-01-09T02:16:22.036Z,100100.14
2023-01-09T02:19:26.437Z,100093.61
2023-01-09T02:22:06.862Z,100083.50
2023-01-09T02:25:03.298Z,100078.03
2023-01-09T02:27:43.247Z,100068.62
2023-01-09T02:30:31.827Z,100074.95
2023-01-09T02:33:08.330Z,100068.77
2023-01-09T02:36:01.783Z,100070.34
2023-01-09T02:38:46.772Z,100065.27
2023-01-09T02:41:21.403Z,100070.95
2023-01-09T02:43:48.125Z,100075.41
2023-01-09T02:46:21.742Z,100072.02
2023-01-09T02:48:50.185Z,100067.29
2023-01-09T02:51:25.616Z,100068.05
2023-01-09T02:53:55.595Z,100056.93
2023-01-09T02:56:40.982Z,100055.56
2023-01-09T02:59:17.491Z,100055.38
2023-01-09T03:02:02.918Z,100052.80
2023-01-09T03:04:46.536Z,100048.68
2023-01-09T03:07:30.584Z,100052.64
2023-01-09T03:10:02.914Z,100055.09
2023-01-09T03:12:30.572Z,100053.75
2023-01-09T03:14:58.101Z,100053.41
2023-01-09T03:17:36.833Z,100045.73
2023-01-09T03:20:04.835Z,100047.27
2023-01-09T03:22:31.976Z,100049.67
2023-01-09T03:24:58.688Z,100042.67
2023-01-09T03:27:25.556Z,100033.62
2023-01-09T03:29:52.800Z,100028.34
2023-01-09T03:32:19.678Z,100024.59
2023-01-09T03:34:46.295Z,100027.64
2023-01-09T03:37:13.019Z,100022.33
2023-01-09T03:39:40.287Z,100020.95
2023-01-09T03:42:07.218Z,100026.05
2023-01-09T03:44:33.835Z,100015.38
2023-01-09T03:47:00.761Z,100027.35
2023-01-09T03:49:27.439Z,100017.41
2023-01-09T03:51:54.068Z,100021.95
2023-01-09T03:54:21.780Z,100026.79
2023-01-09T03:56:49.675Z,100019.81
2023-01-09T03:59:16.301Z,100018.30
2023-01-09T04:01:43.420Z,100019.02
2023-01-09T04:04:10.261Z,100010.81
2023-01-09T04:06:37.421Z,100014.59
2023-01-09T04:09:04.281Z,100008.62
2023-01-09T04:11:31.988Z,99999.19
2023-01-09T04:13:58.637Z,99998.67
2023-01-09T04:16:25.603Z,100010.31
2023-01-09T04:18:52.323Z,100001.25
2023-01-09T04:21:19.463Z,99998.35
2023-01-09T04:23:46.091Z,99995.42
2023-01-09T04:26:17.054Z,99993.19
2023-01-09T04:28:43.804Z,99992.84
2023-01-09T04:31:10.612Z,99995.08
2023-01-09T04:33:37.283Z,99991.32
2023-01-09T04:36:04.772Z,99985.15
2023-01-09T04:38:31.611Z,99981.75
2023-01-09T04:40:58.442Z,99975.95
2023-01-09T04:43:25.086Z,99971.34
2023-01-09T04:45:51.876Z,99970.42
2023-01-09T04:48:18.491Z,99983.72
2023-01-09T04:50:45.205Z,99973.73
2023-01-09T04:53:12.096Z,99980.08
2023-01-09T04:55:40.908Z,99970.13
2023-01-09T04:58:07.604Z,99968.06
2023-01-09T05:00:34.389Z,99964.45
2023-01-09T05:03:02.362Z,99989.94
2023-01-09T05:05:32.395Z,99969.22
2023-01-09T05:07:59.684Z,99972.35
2023-01-09T05:10:26.491Z,99970.99
2023-01-09T05:12:53.183Z,99971.31
2023-01-09T05:15:19.916Z,99972.16
2023-01-09T05:17:46.609Z,99965.52
2023-01-09T05:20:13.251Z,99972.89
2023-01-09T05:22:39.940Z,99970.49
2023-01-09T05:25:06.890Z,99965.20
2023-01-09T05:27:33.913Z,99966.22
2023-01-09T05:30:01.017Z,99960.83
2023-01-09T05:32:27.879Z,99960.11
2023-01-09T05:34:54.672Z,99950.69
2023-01-09T05:37:22.146Z,99949.99
2023-01-09T05:39:48.886Z,99952.05
2023-01-09T05:42:15.762Z,99952.58
2023-01-09T05:44:42.575Z,99952.30
2023-01-09T05:47:09.210Z,99944.70
2023-01-09T05:49:35.825Z,99952.23
2023-01-09T05:52:02.716Z,99948.64
2023-01-09T05:54:29.593Z,99955.48
2023-01-09T05:56:56.647Z,99953.08
2023-01-09T05:59:23.350Z,99952.48
2023-01-09T06:01:50.227Z,99951.16
2023-01-09T06:04:16.948Z,99957.11
2023-01-09T06:06:43.697Z,99957.80
2023-01-09T06:09:10.648Z,99956.25
2023-01-09T06:11:38.009Z,99942.20
2023-01-09T06:14:06.718Z,99943.73
2023-01-09T06:16:33.405Z,99943.11
2023-01-09T06:19:00.151Z,99939.27
2023-01-09T06:21:28.928Z,99943.36
2023-01-09T06:23:55.997Z,99936.84
2023-01-09T06:26:23.027Z,99938.23
2023-01-09T06:28:49.912Z,99937.98
2023-01-09T06:31:16.833Z,99942.66
2023-01-09T06:33:43.983Z,99942.77
2023-01-09T06:36:10.788Z,99942.56
2023-01-09T06:38:38.367Z,99940.67
2023-01-09T06:41:05.145Z,99941.23
2023-01-09T06:43:32.276Z,99936.38
2023-01-09T06:46:00.329Z,99932.18
2023-01-09T06:48:27.137Z,99925.80
2023-01-09T06:50:54.011Z,99917.71
2023-01-09T06:53:20.792Z,99916.52
2023-01-09T06:55:47.625Z,99918.91
2023-01-09T06:58:14.531Z,99923.01
2023-01-09T07:00:41.262Z,99926.02
2023-01-09T07:03:08.902Z,99929.06
2023-01-09T07:05:40.829Z,99924.07
2023-01-09T07:08:08.117Z,99931.92
2023-01-09T07:10:37.207Z,99924.71
2023-01-09T07:13:04.942Z,99920.20
2023-01-09T07:15:31.715Z,99917.55
2023-01-09T07:17:58.717Z,99920.96
2023-01-09T07:20:25.473Z,99916.11
2023-01-09T07:22:53.404Z,99922.78
2023-01-09T07:25:20.553Z,99917.98
2023-01-09T07:27:48.193Z,99918.41
2023-01-09T07:30:16.039Z,99913.18
2023-01-09T07:32:43.207Z,99918.48
2023-01-09T07:35:10.418Z,99919.18
2023-01-09T07:37:37.657Z,99921.95
2023-01-09T07:40:06.335Z,99922.26
2023-01-09T07:42:33.340Z,99920.61
2023-01-09T07:45:00.712Z,99919.65
2023-01-09T07:47:27.765Z,99916.34
2023-01-09T07:49:54.716Z,99911.80
2023-01-09T07:52:21.565Z,99918.66
2023-01-09T07:54:48.574Z,99905.77
2023-01-09T07:57:15.473Z,99919.59
2023-01-09T07:59:42.951Z,99919.34
2023-01-09T08:02:10.106Z,99918.16
2023-01-09T08:04:37.142Z,99922.10
2023-01-09T08:07:04.376Z,99908.36
2023-01-09T08:09:32.224Z,99922.40
2023-01-09T08:11:59.606Z,99917.82
2023-01-09T08:14:27.002Z,99918.62
2023-01-09T08:16:54.238Z,99913.08
2023-01-09T08:19:21.710Z,99920.98
2023-01-09T08:21:49.216Z,99916.16
2023-01-09T08:24:16.186Z,99913.80
2023-01-09T08:26:44.789Z,99916.23
2023-01-09T08:29:15.226Z,99919.46
2023-01-09T08:31:44.283Z,99916.70
2023-01-09T08:34:13.386Z,99906.26
2023-01-09T08:36:42.564Z,99896.09
2023-01-09T08:39:12.059Z,99902.65
2023-01-09T08:41:59.852Z,99891.81
2023-01-09T08:44:46.897Z,99886.69
2023-01-09T08:47:16.351Z,99891.32
2023-01-09T08:49:45.184Z,99877.73
2023-01-09T08:52:14.195Z,99872.95
2023-01-09T08:54:44.295Z,99872.34
2023-01-09T08:57:13.550Z,99866.27
2023-01-09T08:59:42.203Z,99868.83
2023-01-09T09:02:11.205Z,99867.09
2023-01-09T09:04:40.832Z,99860.14
2023-01-09T09:07:11.262Z,99854.70
2023-01-09T09:09:41.506Z,99850.71
2023-01-09T09:12:13.676Z,99850.86
2023-01-09T09:15:01.746Z,99856.70
2023-01-09T09:17:32.982Z,99845.31
2023-01-09T09:20:02.262Z,99843.66
2023-01-09T09:22:32.292Z,99857.36
2023-01-09T09:25:02.325Z,99843.42
2023-01-09T09:35:33.415Z,99831.04
2023-01-09T09:38:04.856Z,99831.34
2023-01-09T09:41:29.471Z,99833.17
2023-01-09T09:44:31.535Z,99837.71
2023-01-09T09:47:04.618Z,99828.58
2023-01-09T09:50:16.108Z,99826.66
2023-01-09T09:53:09.881Z,99810.27
2023-01-09T09:55:39.470Z,99815.26
2023-01-09T09:58:23.018Z,99826.26
2023-01-09T10:00:52.040Z,99819.08
2023-01-09T10:03:56.265Z,99806.81
2023-01-09T10:06:28.998Z,99810.11
2023-01-09T10:09:11.209Z,99803.28
2023-01-09T10:11:49.416Z,99793.83
2023-01-09T10:14:23.666Z,99803.32
2023-01-09T10:17:11.381Z,99798.92
2023-01-09T10:19:38.213Z,99795.23
2023-01-09T10:22:17.871Z,99784.52
2023-01-09T10:25:06.733Z,99786.50
2023-01-09T10:27:48.600Z,99785.38
2023-01-09T10:30:21.789Z,99783.52
2023-01-09T10:33:16.323Z,99781.89
2023-01-09T10:35:48.009Z,99774.10
2023-01-09T10:38:24.994Z,99767.34
2023-01-09T10:41:01.384Z,99777.86
2023-01-09T10:43:42.117Z,99778.83
2023-01-09T10:46:11.958Z,99779.17
2023-01-09T10:48:42.085Z,99778.46
2023-01-09T10:51:23.768Z,99776.08
2023-01-09T10:53:54.810Z,99777.85
2023-01-09T10:56:32.402Z,99771.27
2023-01-09T10:58:59.381Z,99774.13
2023-01-09T11:01:30.913Z,99767.55
2023-01-09T11:03:58.777Z,99771.52
2023-01-09T11:06:58.989Z,99768.64
2023-01-09T11:09:26.346Z,99786.86
2023-01-09T11:11:53.391Z,99767.83
2023-01-09T11:14:31.368Z,99773.52
2023-01-09T11:17:00.896Z,99770.29
2023-01-09T11:19:28.667Z,99771.11
2023-01-09T11:22:11.790Z,99768.50
2023-01-09T11:24:39.657Z,99758.83
2023-01-09T11:27:12.547Z,99752.75
2023-01-09T11:29:41.732Z,99759.56
2023-01-09T11:32:21.789Z,99753.20
2023-01-09T11:34:48.743Z,99746.67
2023-01-09T11:37:22.925Z,99749.02
2023-01-09T11:39:49.884Z,99750.95
2023-01-09T11:42:43.054Z,99754.04
2023-01-09T11:45:21.473Z,99741.88
2023-01-09T11:47:48.216Z,99743.27
2023-01-09T11:50:24.370Z,99748.73
2023-01-09T11:53:18.543Z,99741.80
2023-01-09T11:55:46.716Z,99740.08
2023-01-09T11:58:18.472Z,99745.95
2023-01-09T12:01:18.853Z,99751.09
2023-01-09T12:03:52.018Z,99742.58
2023-01-09T12:06:25.789Z,99737.08
2023-01-09T12:08:59.328Z,99742.29
2023-01-09T12:11:31.805Z,99738.50
2023-01-09T12:14:10.688Z,99739.13
2023-01-09T12:16:40.915Z,99732.71
2023-01-09T12:19:40.044Z,99722.02
2023-01-09T12:22:35.109Z,99736.15
2023-01-09T12:25:21.928Z,99723.36
2023-01-09T12:28:13.127Z,99727.32
2023-01-09T12:30:44.069Z,99721.98
2023-01-09T12:33:14.598Z,99732.46
2023-01-09T12:36:03.871Z,99721.57
2023-01-09T12:38:46.279Z,99733.33
2023-01-09T12:41:22.438Z,99725.63
2023-01-09T12:44:35.046Z,99732.41
2023-01-09T12:47:28.423Z,99724.27
2023-01-09T12:50:10.424Z,99725.12
2023-01-09T12:52:49.131Z,99738.67
2023-01-09T12:55:21.192Z,99733.48
2023-01-09T12:57:52.641Z,99743.84
2023-01-09T13:00:27.164Z,99744.67
2023-01-09T13:03:12.091Z,99735.23
2023-01-09T13:05:48.249Z,99740.86
2023-01-09T13:08:34.020Z,99732.30
2023-01-09T13:11:18.844Z,99738.41
2023-01-09T13:14:18.551Z,99732.85
2023-01-09T13:16:48.371Z,99728.40
2023-01-09T13:19:23.148Z,99724.39
2023-01-09T13:21:50.043Z,99742.02
2023-01-09T13:24:37.663Z,99729.74
2023-01-09T13:27:06.961Z,99730.61
2023-01-09T13:29:41.742Z,99730.91
2023-01-09T13:32:08.739Z,99726.88
2023-01-09T13:34:36.298Z,99719.73
2023-01-09T13:37:03.298Z,99735.16
2023-01-09T13:39:32.025Z,99724.95
2023-01-09T13:42:22.008Z,99731.23
2023-01-09T13:44:54.318Z,99739.53
2023-01-09T13:47:27.279Z,99744.15
2023-01-09T13:50:00.622Z,99738.75
2023-01-09T13:52:28.320Z,99730.98
2023-01-09T13:54:55.070Z,99732.56
2023-01-09T13:57:29.754Z,99725.96
2023-01-09T14:00:18.964Z,99725.96
2023-01-09T14:02:46.409Z,99726.27
2023-01-09T14:05:15.092Z,99734.61
2023-01-09T14:07:48.659Z,99735.89
2023-01-09T14:10:24.152Z,99739.10
2023-01-09T14:12:53.766Z,99737.17
2023-01-09T14:15:26.671Z,99728.02
2023-01-09T14:18:04.157Z,99729.42
2023-01-09T14:20:37.410Z,99731.91
2023-01-09T14:23:28.223Z,99729.44
2023-01-09T14:25:51.877Z,99726.10
2023-01-09T14:28:32.243Z,99725.70
2023-01-09T14:30:59.085Z,99724.13
2023-01-09T14:33:27.971Z,99730.20
2023-01-09T14:36:16.323Z,99728.75
2023-01-09T14:38:45.432Z,99727.31
2023-01-09T14:41:15.015Z,99728.39
2023-01-09T14:43:59.272Z,99731.16
2023-01-09T14:46:26.316Z,99733.83
2023-01-09T14:49:16.501Z,99739.16
2023-01-09T14:51:45.391Z,99744.60
2023-01-09T14:54:29.743Z,99748.39
2023-01-09T14:56:57.097Z,99748.04
2023-01-09T14:59:23.944Z,99745.59
2023-01-09T15:01:51.367Z,99742.61
2023-01-09T15:04:21.107Z,99747.40
2023-01-09T15:06:48.151Z,99745.04
2023-01-09T15:09:28.437Z,99741.33
2023-01-09T15:12:03.347Z,99743.00
2023-01-09T15:14:40.128Z,99745.73
2023-01-09T15:17:20.370Z,99748.66
2023-01-09T15:19:47.358Z,99744.91
2023-01-09T15:22:35.761Z,99750.21
2023-01-09T15:25:30.547Z,99754.65
2023-01-09T15:28:01.988Z,99748.05
2023-01-09T15:30:34.166Z,99750.69
2023-01-09T15:33:19.351Z,99742.80
2023-01-09T15:35:48.149Z,99740.13
2023-01-09T15:38:25.015Z,99739.89
2023-01-09T15:41:00.192Z,99736.20
2023-01-09T15:43:27.853Z,99737.26
2023-01-09T15:45:54.803Z,99734.56
2023-01-09T15:48:24.567Z,99732.10
2023-01-09T15:50:55.023Z,99733.88
2023-01-09T15:53:23.879Z,99734.41
2023-01-09T15:56:19.006Z,99726.64
2023-01-09T15:58:47.773Z,99735.53
2023-01-09T16:01:37.756Z,99730.78
2023-01-09T16:04:08.705Z,99739.63
2023-01-09T16:06:37.486Z,99732.48
2023-01-09T16:09:04.958Z,99732.94
2023-01-09T16:11:37.204Z,99723.27
2023-01-09T16:14:18.077Z,99728.95
2023-01-09T16:16:45.727Z,99732.05
2023-01-09T16:19:29.173Z,99739.55
2023-01-09T16:21:57.033Z,99736.94
2023-01-09T16:24:27.108Z,99727.16
2023-01-09T16:27:25.737Z,99726.36
2023-01-09T16:29:59.193Z,99729.16
2023-01-09T16:32:27.628Z,99734.81
2023-01-09T16:34:56.305Z,99733.74
2023-01-09T16:37:24.404Z,99732.91
2023-01-09T16:40:25.204Z,99729.70
2023-01-09T16:43:06.699Z,99727.14
2023-01-09T16:45:34.689Z,99731.02
2023-01-09T16:48:03.252Z,99727.23
2023-01-09T16:50:30.502Z,99723.77
2023-01-09T16:52:57.964Z,99726.73
2023-01-09T16:55:24.820Z,99734.70
2023-01-09T16:57:51.565Z,99726.17
2023-01-09T17:00:19.502Z,99724.91
2023-01-09T17:02:46.646Z,99724.73
2023-01-09T17:05:13.700Z,99724.00
2023-01-09T17:07:40.858Z,99731.59
2023-01-09T17:10:19.030Z,99733.30
2023-01-09T17:12:46.001Z,99737.00
2023-01-09T17:15:14.780Z,99738.19
2023-01-09T17:17:41.731Z,99738.54
2023-01-09T17:20:29.477Z,99740.11
2023-01-09T17:22:58.556Z,99739.38
2023-01-09T17:25:44.240Z,99734.27
2023-01-09T17:28:32.904Z,99732.86
2023-01-09T17:31:01.063Z,99734.36
2023-01-09T17:33:28.646Z,99734.56
2023-01-09T17:35:56.077Z,99742.48
2023-01-09T17:38:22.823Z,99742.77
2023-01-09T17:40:49.762Z,99739.87
2023-01-09T17:43:18.389Z,99738.96
2023-01-09T17:45:45.369Z,99739.69
2023-01-09T17:48:20.497Z,99739.86
2023-01-09T17:50:48.098Z,99746.90
2023-01-09T17:53:16.876Z,99737.28
2023-01-09T17:55:43.617Z,99738.04
2023-01-09T17:58:23.158Z,99735.77
2023-01-09T18:00:49.997Z,99731.25
2023-01-09T18:03:17.151Z,99724.20
2023-01-09T18:05:44.908Z,99720.51
2023-01-09T18:08:12.831Z,99720.03
2023-01-09T18:10:40.237Z,99720.45
2023-01-09T18:13:08.401Z,99722.30
2023-01-09T18:15:35.452Z,99722.23
2023-01-09T18:18:03.013Z,99719.82
2023-01-09T18:20:29.888Z,99722.09
2023-01-09T18:22:56.791Z,99717.87
2023-01-09T18:25:23.738Z,99728.08
2023-01-09T18:27:51.297Z,99722.83
2023-01-09T18:30:18.137Z,99723.52
2023-01-09T18:32:45.805Z,99718.02
2023-01-09T18:35:13.167Z,99718.06
2023-01-09T18:37:40.110Z,99726.30
2023-01-09T18:40:08.907Z,99717.24
2023-01-09T18:42:36.133Z,99720.83
2023-01-09T18:45:03.588Z,99709.73
2023-01-09T18:47:30.535Z,99710.73
2023-01-09T18:49:57.375Z,99708.32
2023-01-09T18:52:24.424Z,99701.04
2023-01-09T18:54:51.263Z,99697.48
2023-01-09T18:57:20.052Z,99699.29
2023-01-09T18:59:47.111Z,99698.23
2023-01-09T19:02:24.454Z,99703.41
2023-01-09T19:04:51.229Z,99702.26
2023-01-09T19:07:17.976Z,99720.63
2023-01-09T19:09:45.230Z,99709.56
2023-01-09T19:12:12.268Z,99719.49
2023-01-09T19:14:41.973Z,99711.91
2023-01-09T19:17:08.918Z,99706.44
2023-01-09T19:19:36.474Z,99715.12
2023-01-09T19:22:03.331Z,99710.48
2023-01-09T19:24:32.517Z,99712.39
2023-01-09T19:26:59.620Z,99708.08
2023-01-09T19:29:27.442Z,99714.54
2023-01-09T19:31:54.462Z,99717.09
2023-01-09T19:34:24.836Z,99721.88
2023-01-09T19:36:52.711Z,99719.85
2023-01-09T19:39:20.017Z,99729.70
2023-01-09T19:41:46.964Z,99736.28
2023-01-09T19:44:14.417Z,99740.61
2023-01-09T19:46:41.675Z,99740.26
2023-01-09T19:49:08.715Z,99738.34
2023-01-09T19:51:35.982Z,99733.06
2023-01-09T19:54:03.217Z,99738.91
2023-01-09T19:56:35.185Z,99735.67
2023-01-09T19:59:02.961Z,99743.08
2023-01-09T20:01:35.266Z,99736.55
2023-01-09T20:04:07.076Z,99743.08
2023-01-09T20:06:38.843Z,99740.99
2023-01-09T20:09:07.206Z,99743.25
2023-01-09T20:11:34.047Z,99740.30
2023-01-09T20:14:00.900Z,99729.91
2023-01-09T20:16:29.584Z,99743.72
2023-01-09T20:18:57.950Z,99729.41
2023-01-09T20:21:26.023Z,99734.09
2023-01-09T20:23:54.407Z,99734.10
2023-01-09T20:26:22.331Z,99727.19
2023-01-09T20:28:49.842Z,99741.67
2023-01-09T20:31:18.333Z,99736.52
2023-01-09T20:33:49.086Z,99731.66
2023-01-09T20:36:15.993Z,99738.25
2023-01-09T20:38:42.931Z,99728.29
2023-01-09T20:41:22.163Z,99747.42
2023-01-09T20:43:55.485Z,99732.02
2023-01-09T20:46:25.061Z,99741.52
2023-01-09T20:48:54.153Z,99736.75
2023-01-09T20:51:20.795Z,99752.50
2023-01-09T20:53:54.959Z,99747.91
2023-01-09T20:56:29.483Z,99740.01
2023-01-09T20:58:56.986Z,99740.25
2023-01-09T21:01:24.027Z,99741.01
2023-01-09T21:03:51.622Z,99754.17
2023-01-09T21:06:21.088Z,99760.61
2023-01-09T21:08:49.818Z,99762.91
2023-01-09T21:11:16.719Z,99758.84
2023-01-09T21:13:43.768Z,99768.20
2023-01-09T21:16:16.710Z,99766.33
2023-01-09T21:18:43.905Z,99769.79
2023-01-09T21:21:13.058Z,99769.16
2023-01-09T21:23:51.385Z,99764.01
2023-01-09T21:26:21.833Z,99765.61
2023-01-09T21:28:54.600Z,99778.44
2023-01-09T21:31:25.069Z,99778.45
2023-01-09T21:33:53.947Z,99774.14
2023-01-09T21:36:21.215Z,99771.55
2023-01-09T21:38:48.335Z,99772.29
2023-01-09T21:41:34.939Z,99767.31
2023-01-09T21:44:20.623Z,99769.63
2023-01-09T21:46:52.001Z,99788.67
2023-01-09T21:49:19.941Z,99758.38
2023-01-09T21:51:47.098Z,99775.83
2023-01-09T21:54:14.239Z,99780.60
2023-01-09T21:56:41.184Z,99772.55
2023-01-09T21:59:08.280Z,99776.29
2023-01-09T22:01:35.797Z,99786.54
2023-01-09T22:04:02.854Z,99774.89
2023-01-09T22:06:31.025Z,99770.67
2023-01-09T22:08:57.952Z,99776.49
2023-01-09T22:11:25.211Z,99776.70
2023-01-09T22:13:53.576Z,99777.80
2023-01-09T22:16:20.332Z,99778.73
2023-01-09T22:18:49.001Z,99785.04
2023-01-09T22:21:17.172Z,99786.84
2023-01-09T22:23:44.033Z,99782.81
2023-01-09T22:26:12.597Z,99782.20
2023-01-09T22:28:39.880Z,99781.25
2023-01-09T22:31:14.397Z,99791.42
2023-01-09T22:33:41.521Z,99780.89
2023-01-09T22:36:10.237Z,99789.35
2023-01-09T22:38:37.367Z,99793.47
2023-01-09T22:41:04.333Z,99788.09
2023-01-09T22:43:31.241Z,99794.23
2023-01-09T22:46:04.458Z,99802.44
2023-01-09T22:48:34.533Z,99803.07
2023-01-09T22:51:05.616Z,99796.26
2023-01-09T22:53:32.472Z,99793.77
2023-01-09T22:56:01.119Z,99795.42
2023-01-09T22:58:29.755Z,99806.17
2023-01-09T23:00:56.857Z,99804.69
2023-01-09T23:03:24.068Z,99803.49
2023-01-09T23:06:09.312Z,99810.98
2023-01-09T23:08:36.634Z,99800.47
2023-01-09T23:11:05.212Z,99811.18
2023-01-09T23:13:31.953Z,99811.40
2023-01-09T23:15:59.305Z,99805.21
2023-01-09T23:18:26.245Z,99799.39
2023-01-09T23:20:54.833Z,99810.63
2023-01-09T23:23:22.181Z,99804.27
2023-01-09T23:25:50.254Z,99804.67
2023-01-09T23:28:18.017Z,99804.34
2023-01-09T23:30:45.301Z,99803.34
2023-01-09T23:33:12.112Z,99809.55
2023-01-09T23:35:40.534Z,99807.86
2023-01-09T23:38:08.148Z,99812.51
2023-01-09T23:40:35.814Z,99812.02
2023-01-09T23:43:09.772Z,99805.54
2023-01-09T23:45:40.784Z,99811.60
2023-01-09T23:48:09.036Z,99811.63
2023-01-09T23:50:36.293Z,99815.27
2023-01-09T23:53:03.236Z,99809.09
2023-01-09T23:55:30.276Z,99805.30
2023-01-09T23:57:57.424Z,99818.41
